^^
TXWeather Station Historical Data
Daily Summary for January 01, 2022 Units:  English    Metric   Both
Daily Weekly Monthly Yearly Custom
  High: Low: Average:
Temperature: 84.0 °F 63.0 °F 76.8 °F
Dew Point: 72.0 °F 53.0 °F 67.4 °F
Humidity: 85% 59% 74%
Wind Speed: 24mph 0mph 10.2mph
Wind Gust: 25mph - -
Wind- - SSW
Pressure: 29.9 in 29.7 in -
Precipitation: 0.000 in    
Historical Graphs
 
 
Tabular Data for January 01, 2022
Time Temperature Dew Point Pressure Wind Wind Speed Wind Gust Humidity Rainfall Rate (Hourly) solar
00:04 74.0 °F 69.0 °F 29.8 in SSE 15 mph 15 mph 85% 0.000 in 0.00 W/m2
00:09 75.0 °F 69.0 °F 29.8 in South 13 mph 14 mph 84% 0.000 in 0.00 W/m2
00:14 75.0 °F 69.0 °F 29.8 in South 14 mph 14 mph 84% 0.000 in 0.00 W/m2
00:19 75.0 °F 69.0 °F 29.8 in SSE 13 mph 15 mph 84% 0.000 in 0.00 W/m2
00:24 75.0 °F 69.0 °F 29.8 in SSE 12 mph 16 mph 83% 0.000 in 0.00 W/m2
00:29 75.0 °F 69.0 °F 29.8 in SSE 15 mph 16 mph 83% 0.000 in 0.00 W/m2
00:34 75.0 °F 69.0 °F 29.8 in SSE 11 mph 16 mph 83% 0.000 in 0.00 W/m2
00:39 75.0 °F 69.0 °F 29.8 in SSE 17 mph 17 mph 83% 0.000 in 0.00 W/m2
00:44 75.0 °F 69.0 °F 29.8 in SSE 12 mph 15 mph 83% 0.000 in 0.00 W/m2
00:49 75.0 °F 69.0 °F 29.8 in South 15 mph 15 mph 83% 0.000 in 0.00 W/m2
00:54 75.0 °F 69.0 °F 29.8 in SSE 17 mph 17 mph 82% 0.000 in 0.00 W/m2
00:59 75.0 °F 69.0 °F 29.8 in South 12 mph 17 mph 82% 0.000 in 0.00 W/m2
01:04 75.0 °F 69.0 °F 29.8 in South 17 mph 17 mph 82% 0.000 in 0.00 W/m2
01:09 75.0 °F 69.0 °F 29.8 in SSE 14 mph 16 mph 82% 0.000 in 0.00 W/m2
01:14 75.0 °F 69.0 °F 29.8 in SSE 14 mph 14 mph 82% 0.000 in 0.00 W/m2
01:19 75.0 °F 69.0 °F 29.8 in SSE 17 mph 17 mph 82% 0.000 in 0.00 W/m2
01:24 75.0 °F 69.0 °F 29.8 in SSE 14 mph 14 mph 82% 0.000 in 0.00 W/m2
01:29 75.0 °F 69.0 °F 29.8 in SSE 14 mph 14 mph 82% 0.000 in 0.00 W/m2
01:34 75.0 °F 69.0 °F 29.8 in SSE 17 mph 17 mph 82% 0.000 in 0.00 W/m2
01:39 75.0 °F 69.0 °F 29.7 in SSE 17 mph 17 mph 82% 0.000 in 0.00 W/m2
01:44 75.0 °F 69.0 °F 29.7 in SSE 17 mph 19 mph 82% 0.000 in 0.00 W/m2
01:49 75.0 °F 69.0 °F 29.7 in SSE 18 mph 18 mph 82% 0.000 in 0.00 W/m2
01:54 75.0 °F 69.0 °F 29.7 in South 16 mph 16 mph 82% 0.000 in 0.00 W/m2
01:59 75.0 °F 69.0 °F 29.7 in SSE 16 mph 16 mph 82% 0.000 in 0.00 W/m2
02:04 75.0 °F 69.0 °F 29.7 in SSE 20 mph 20 mph 82% 0.000 in 0.00 W/m2
02:09 75.0 °F 69.0 °F 29.7 in SSE 20 mph 20 mph 82% 0.000 in 0.00 W/m2
02:14 75.0 °F 69.0 °F 29.7 in SSE 13 mph 16 mph 82% 0.000 in 0.00 W/m2
02:19 75.0 °F 69.0 °F 29.7 in South 15 mph 16 mph 82% 0.000 in 0.00 W/m2
02:24 75.0 °F 69.0 °F 29.7 in SSE 17 mph 22 mph 82% 0.000 in 0.00 W/m2
02:29 75.0 °F 69.0 °F 29.7 in SSE 20 mph 22 mph 82% 0.000 in 0.00 W/m2
02:34 75.0 °F 69.0 °F 29.7 in SSE 23 mph 23 mph 82% 0.000 in 0.00 W/m2
02:39 75.0 °F 69.0 °F 29.7 in SSE 24 mph 24 mph 82% 0.000 in 0.00 W/m2
02:44 75.0 °F 69.0 °F 29.7 in SSE 20 mph 24 mph 82% 0.000 in 0.00 W/m2
02:49 75.0 °F 69.0 °F 29.7 in South 17 mph 18 mph 82% 0.000 in 0.00 W/m2
02:54 75.0 °F 69.0 °F 29.7 in SSE 19 mph 19 mph 82% 0.000 in 0.00 W/m2
02:59 75.0 °F 69.0 °F 29.7 in SSE 14 mph 19 mph 82% 0.000 in 0.00 W/m2
03:04 75.0 °F 69.0 °F 29.7 in SSE 12 mph 12 mph 82% 0.000 in 0.00 W/m2
03:09 75.0 °F 69.0 °F 29.7 in SSE 23 mph 24 mph 82% 0.000 in 0.00 W/m2
03:14 75.0 °F 69.0 °F 29.7 in SSE 12 mph 16 mph 82% 0.000 in 0.00 W/m2
03:19 75.0 °F 69.0 °F 29.7 in SSE 15 mph 17 mph 82% 0.000 in 0.00 W/m2
03:24 75.0 °F 69.0 °F 29.7 in SSE 18 mph 24 mph 82% 0.000 in 0.00 W/m2
03:29 75.0 °F 69.0 °F 29.7 in SSE 14 mph 24 mph 82% 0.000 in 0.00 W/m2
03:34 75.0 °F 69.0 °F 29.7 in South 16 mph 17 mph 82% 0.000 in 0.00 W/m2
03:39 75.0 °F 69.0 °F 29.7 in SSE 17 mph 17 mph 82% 0.000 in 0.00 W/m2
03:44 75.0 °F 69.0 °F 29.7 in SSE 17 mph 20 mph 82% 0.000 in 0.00 W/m2
03:49 75.0 °F 69.0 °F 29.7 in South 15 mph 17 mph 82% 0.000 in 0.00 W/m2
03:54 75.0 °F 69.0 °F 29.7 in South 16 mph 16 mph 81% 0.000 in 0.00 W/m2
03:59 75.0 °F 69.0 °F 29.7 in South 17 mph 17 mph 81% 0.000 in 0.00 W/m2
04:04 75.0 °F 69.0 °F 29.7 in SSE 12 mph 15 mph 81% 0.000 in 0.00 W/m2
04:09 75.0 °F 69.0 °F 29.7 in South 13 mph 14 mph 81% 0.000 in 0.00 W/m2
04:14 75.0 °F 69.0 °F 29.7 in South 16 mph 21 mph 81% 0.000 in 0.00 W/m2
04:19 75.0 °F 69.0 °F 29.7 in South 22 mph 22 mph 81% 0.000 in 0.00 W/m2
04:24 75.0 °F 68.0 °F 29.7 in South 12 mph 22 mph 80% 0.000 in 0.00 W/m2
04:29 75.0 °F 68.0 °F 29.7 in SSE 17 mph 17 mph 80% 0.000 in 0.00 W/m2
04:34 75.0 °F 68.0 °F 29.7 in SSE 13 mph 15 mph 80% 0.000 in 0.00 W/m2
04:39 75.0 °F 68.0 °F 29.7 in South 13 mph 17 mph 80% 0.000 in 0.00 W/m2
04:44 75.0 °F 68.0 °F 29.7 in South 14 mph 14 mph 80% 0.000 in 0.00 W/m2
04:49 75.0 °F 68.0 °F 29.7 in South 10 mph 16 mph 80% 0.000 in 0.00 W/m2
04:54 75.0 °F 68.0 °F 29.7 in South 14 mph 14 mph 80% 0.000 in 0.00 W/m2
04:59 75.0 °F 68.0 °F 29.7 in South 17 mph 17 mph 80% 0.000 in 0.00 W/m2
05:04 75.0 °F 68.0 °F 29.7 in South 14 mph 15 mph 80% 0.000 in 0.00 W/m2
05:09 75.0 °F 69.0 °F 29.7 in South 15 mph 15 mph 81% 0.000 in 0.00 W/m2
05:14 75.0 °F 69.0 °F 29.7 in South 11 mph 12 mph 81% 0.000 in 0.00 W/m2
05:19 75.0 °F 69.0 °F 29.7 in South 10 mph 10 mph 81% 0.000 in 0.00 W/m2
05:24 75.0 °F 69.0 °F 29.7 in SSE 13 mph 14 mph 81% 0.000 in 0.00 W/m2
05:29 75.0 °F 69.0 °F 29.7 in South 10 mph 10 mph 81% 0.000 in 0.00 W/m2
05:34 75.0 °F 69.0 °F 29.7 in South 21 mph 21 mph 81% 0.000 in 0.00 W/m2
05:39 75.0 °F 68.0 °F 29.7 in SSE 10 mph 11 mph 81% 0.000 in 0.00 W/m2
05:44 75.0 °F 68.0 °F 29.7 in SSE 14 mph 14 mph 81% 0.000 in 0.00 W/m2
05:49 75.0 °F 68.0 °F 29.7 in South 17 mph 17 mph 81% 0.000 in 0.00 W/m2
05:54 75.0 °F 68.0 °F 29.7 in South 13 mph 13 mph 81% 0.000 in 0.00 W/m2
05:59 75.0 °F 68.0 °F 29.7 in South 19 mph 19 mph 81% 0.000 in 0.00 W/m2
06:04 75.0 °F 68.0 °F 29.7 in South 11 mph 15 mph 80% 0.000 in 0.00 W/m2
06:09 75.0 °F 68.0 °F 29.7 in South 17 mph 17 mph 80% 0.000 in 0.00 W/m2
06:14 75.0 °F 68.0 °F 29.7 in South 10 mph 14 mph 80% 0.000 in 0.00 W/m2
06:19 75.0 °F 68.0 °F 29.7 in South 16 mph 16 mph 80% 0.000 in 0.00 W/m2
06:24 75.0 °F 68.0 °F 29.7 in South 14 mph 16 mph 80% 0.000 in 0.00 W/m2
06:29 75.0 °F 68.0 °F 29.7 in South 16 mph 16 mph 80% 0.000 in 0.00 W/m2
06:34 75.0 °F 68.0 °F 29.7 in South 14 mph 16 mph 80% 0.000 in 0.00 W/m2
06:39 75.0 °F 68.0 °F 29.7 in SSE 16 mph 18 mph 80% 0.000 in 0.00 W/m2
06:44 75.0 °F 68.0 °F 29.7 in SSE 11 mph 18 mph 80% 0.000 in 0.00 W/m2
06:49 75.0 °F 68.0 °F 29.7 in SSE 14 mph 18 mph 80% 0.000 in 0.00 W/m2
06:54 75.0 °F 68.0 °F 29.7 in South 11 mph 18 mph 80% 0.000 in 0.00 W/m2
06:59 75.0 °F 68.0 °F 29.7 in South 10 mph 15 mph 80% 0.000 in 0.00 W/m2
07:04 75.0 °F 68.0 °F 29.7 in South 12 mph 17 mph 80% 0.000 in 0.00 W/m2
07:09 75.0 °F 68.0 °F 29.7 in SSE 11 mph 13 mph 80% 0.000 in 0.00 W/m2
07:14 75.0 °F 68.0 °F 29.7 in South 11 mph 12 mph 80% 0.000 in 0.00 W/m2
07:19 75.0 °F 68.0 °F 29.7 in SSE 10 mph 12 mph 80% 0.000 in 5.00 W/m2
07:24 75.0 °F 68.0 °F 29.7 in South 11 mph 15 mph 80% 0.000 in 5.00 W/m2
07:29 75.0 °F 68.0 °F 29.7 in South 12 mph 18 mph 80% 0.000 in 11.00 W/m2
07:34 75.0 °F 69.0 °F 29.7 in SSE 9 mph 12 mph 81% 0.000 in 16.00 W/m2
07:39 75.0 °F 69.0 °F 29.7 in South 17 mph 17 mph 81% 0.000 in 23.00 W/m2
07:44 75.0 °F 69.0 °F 29.7 in South 12 mph 17 mph 81% 0.000 in 26.00 W/m2
07:49 75.0 °F 69.0 °F 29.7 in South 10 mph 12 mph 81% 0.000 in 23.00 W/m2
07:54 75.0 °F 69.0 °F 29.7 in South 14 mph 15 mph 81% 0.000 in 19.00 W/m2
07:59 75.0 °F 69.0 °F 29.7 in South 14 mph 15 mph 81% 0.000 in 23.00 W/m2
08:04 75.0 °F 69.0 °F 29.7 in South 13 mph 15 mph 81% 0.000 in 33.00 W/m2
08:09 75.0 °F 69.0 °F 29.7 in South 11 mph 15 mph 81% 0.000 in 33.00 W/m2
08:14 75.0 °F 69.0 °F 29.7 in SSE 16 mph 16 mph 81% 0.000 in 44.00 W/m2
08:19 75.0 °F 68.0 °F 29.7 in South 12 mph 16 mph 80% 0.000 in 37.00 W/m2
08:24 75.0 °F 69.0 °F 29.7 in South 15 mph 15 mph 80% 0.000 in 40.00 W/m2
08:29 75.0 °F 69.0 °F 29.7 in South 13 mph 15 mph 80% 0.000 in 21.00 W/m2
08:34 75.0 °F 69.0 °F 29.7 in South 13 mph 14 mph 81% 0.000 in 26.00 W/m2
08:39 75.0 °F 69.0 °F 29.8 in South 11 mph 14 mph 81% 0.000 in 47.00 W/m2
08:44 75.0 °F 69.0 °F 29.8 in South 12 mph 12 mph 81% 0.000 in 49.00 W/m2
08:49 76.0 °F 69.0 °F 29.8 in South 11 mph 12 mph 81% 0.000 in 62.00 W/m2
08:54 76.0 °F 69.0 °F 29.8 in South 12 mph 13 mph 81% 0.000 in 81.00 W/m2
08:59 76.0 °F 69.0 °F 29.8 in South 16 mph 16 mph 80% 0.000 in 88.00 W/m2
09:04 76.0 °F 69.0 °F 29.8 in South 11 mph 13 mph 80% 0.000 in 70.00 W/m2
09:09 76.0 °F 69.0 °F 29.8 in South 21 mph 21 mph 80% 0.000 in 90.00 W/m2
09:14 76.0 °F 69.0 °F 29.8 in South 11 mph 14 mph 80% 0.000 in 90.00 W/m2
09:19 76.0 °F 69.0 °F 29.8 in South 11 mph 12 mph 80% 0.000 in 98.00 W/m2
09:24 76.0 °F 70.0 °F 29.8 in South 13 mph 13 mph 80% 0.000 in 90.00 W/m2
09:29 76.0 °F 70.0 °F 29.8 in South 10 mph 13 mph 80% 0.000 in 60.00 W/m2
09:34 76.0 °F 70.0 °F 29.8 in South 14 mph 14 mph 80% 0.000 in 81.00 W/m2
09:39 76.0 °F 69.0 °F 29.8 in South 14 mph 14 mph 79% 0.000 in 111.00 W/m2
09:44 77.0 °F 69.0 °F 29.8 in South 12 mph 12 mph 79% 0.000 in 111.00 W/m2
09:49 77.0 °F 69.0 °F 29.8 in South 12 mph 13 mph 79% 0.000 in 199.00 W/m2
09:54 77.0 °F 70.0 °F 29.8 in South 17 mph 17 mph 79% 0.000 in 239.00 W/m2
09:59 77.0 °F 70.0 °F 29.8 in South 13 mph 17 mph 79% 0.000 in 301.00 W/m2
10:04 77.0 °F 70.0 °F 29.8 in SSE 19 mph 19 mph 79% 0.000 in 341.00 W/m2
10:09 78.0 °F 70.0 °F 29.8 in South 14 mph 18 mph 78% 0.000 in 274.00 W/m2
10:14 78.0 °F 70.0 °F 29.8 in South 15 mph 19 mph 77% 0.000 in 448.00 W/m2
10:19 78.0 °F 70.0 °F 29.8 in South 17 mph 23 mph 77% 0.000 in 448.00 W/m2
10:24 78.0 °F 70.0 °F 29.8 in South 17 mph 20 mph 76% 0.000 in 301.00 W/m2
10:29 79.0 °F 70.0 °F 29.8 in South 17 mph 19 mph 76% 0.000 in 415.00 W/m2
10:34 79.0 °F 70.0 °F 29.8 in South 18 mph 18 mph 75% 0.000 in 415.00 W/m2
10:39 79.0 °F 70.0 °F 29.8 in South 23 mph 25 mph 75% 0.000 in 494.00 W/m2
10:44 79.0 °F 70.0 °F 29.8 in South 14 mph 15 mph 74% 0.000 in 281.00 W/m2
10:49 79.0 °F 70.0 °F 29.8 in South 16 mph 24 mph 74% 0.000 in 244.00 W/m2
10:54 79.0 °F 70.0 °F 29.8 in South 12 mph 17 mph 74% 0.000 in 304.00 W/m2
10:59 79.0 °F 70.0 °F 29.8 in South 10 mph 23 mph 74% 0.000 in 304.00 W/m2
11:04 79.0 °F 70.0 °F 29.8 in South 16 mph 16 mph 74% 0.000 in 237.00 W/m2
11:09 79.0 °F 70.0 °F 29.8 in South 13 mph 15 mph 74% 0.000 in 193.00 W/m2
11:14 79.0 °F 70.0 °F 29.8 in South 16 mph 17 mph 73% 0.000 in 167.00 W/m2
11:19 79.0 °F 70.0 °F 29.8 in South 13 mph 13 mph 74% 0.000 in 181.00 W/m2
11:24 79.0 °F 70.0 °F 29.8 in SSW 12 mph 13 mph 74% 0.000 in 158.00 W/m2
11:29 79.0 °F 70.0 °F 29.8 in South 11 mph 13 mph 74% 0.000 in 218.00 W/m2
11:34 80.0 °F 71.0 °F 29.8 in South 13 mph 13 mph 74% 0.000 in 360.00 W/m2
11:39 80.0 °F 71.0 °F 29.8 in South 11 mph 15 mph 74% 0.000 in 265.00 W/m2
11:44 81.0 °F 71.0 °F 29.8 in South 14 mph 16 mph 73% 0.000 in 265.00 W/m2
11:49 81.0 °F 71.0 °F 29.8 in South 17 mph 20 mph 72% 0.000 in 262.00 W/m2
11:54 81.0 °F 71.0 °F 29.7 in SSW 15 mph 17 mph 72% 0.000 in 598.00 W/m2
11:59 81.0 °F 71.0 °F 29.7 in South 19 mph 20 mph 72% 0.000 in 445.00 W/m2
12:04 82.0 °F 72.0 °F 29.7 in South 12 mph 17 mph 71% 0.000 in 468.00 W/m2
12:09 82.0 °F 71.0 °F 29.7 in SSW 15 mph 19 mph 70% 0.000 in 520.00 W/m2
12:14 82.0 °F 71.0 °F 29.7 in South 14 mph 16 mph 69% 0.000 in 381.00 W/m2
12:19 82.0 °F 71.0 °F 29.7 in South 15 mph 18 mph 70% 0.000 in 568.00 W/m2
12:24 82.0 °F 71.0 °F 29.7 in South 14 mph 18 mph 70% 0.000 in 548.00 W/m2
12:29 82.0 °F 71.0 °F 29.7 in South 15 mph 20 mph 70% 0.000 in 666.00 W/m2
12:34 82.0 °F 71.0 °F 29.7 in South 15 mph 15 mph 70% 0.000 in 666.00 W/m2
12:39 83.0 °F 72.0 °F 29.7 in South 12 mph 13 mph 70% 0.000 in 640.00 W/m2
12:44 83.0 °F 71.0 °F 29.7 in South 13 mph 14 mph 68% 0.000 in 638.00 W/m2
12:49 83.0 °F 71.0 °F 29.7 in South 14 mph 14 mph 68% 0.000 in 241.00 W/m2
12:54 83.0 °F 71.0 °F 29.7 in South 10 mph 10 mph 69% 0.000 in 503.00 W/m2
12:59 83.0 °F 71.0 °F 29.7 in South 10 mph 11 mph 68% 0.000 in 439.00 W/m2
13:04 83.0 °F 72.0 °F 29.7 in South 8 mph 9 mph 69% 0.000 in 687.00 W/m2
13:09 84.0 °F 72.0 °F 29.7 in South 11 mph 16 mph 69% 0.000 in 454.00 W/m2
13:14 84.0 °F 71.0 °F 29.7 in SSW 8 mph 16 mph 67% 0.000 in 418.00 W/m2
13:19 84.0 °F 71.0 °F 29.7 in South 11 mph 11 mph 67% 0.000 in 394.00 W/m2
13:24 84.0 °F 71.0 °F 29.7 in SSW 11 mph 12 mph 67% 0.000 in 394.00 W/m2
13:29 83.0 °F 71.0 °F 29.7 in SSW 10 mph 11 mph 67% 0.000 in 272.00 W/m2
13:34 84.0 °F 71.0 °F 29.7 in SW 8 mph 10 mph 66% 0.000 in 545.00 W/m2
13:39 84.0 °F 71.0 °F 29.7 in SSW 14 mph 14 mph 66% 0.000 in 580.00 W/m2
13:44 84.0 °F 71.0 °F 29.7 in SSW 11 mph 14 mph 65% 0.000 in 445.00 W/m2
13:49 84.0 °F 71.0 °F 29.7 in SSW 11 mph 13 mph 66% 0.000 in 603.00 W/m2
13:54 84.0 °F 71.0 °F 29.7 in South 8 mph 13 mph 66% 0.000 in 552.00 W/m2
13:59 84.0 °F 71.0 °F 29.7 in South 10 mph 10 mph 66% 0.000 in 401.00 W/m2
14:04 84.0 °F 71.0 °F 29.7 in South 9 mph 11 mph 66% 0.000 in 457.00 W/m2
14:09 84.0 °F 71.0 °F 29.7 in SSW 7 mph 8 mph 66% 0.000 in 297.00 W/m2
14:14 84.0 °F 71.0 °F 29.7 in SW 7 mph 8 mph 66% 0.000 in 559.00 W/m2
14:19 84.0 °F 71.0 °F 29.7 in SW 7 mph 8 mph 66% 0.000 in 538.00 W/m2
14:24 84.0 °F 71.0 °F 29.7 in SW 8 mph 10 mph 65% 0.000 in 288.00 W/m2
14:29 84.0 °F 71.0 °F 29.7 in SSW 10 mph 11 mph 65% 0.000 in 364.00 W/m2
14:34 83.0 °F 70.0 °F 29.7 in SW 7 mph 7 mph 65% 0.000 in 561.00 W/m2
14:39 84.0 °F 71.0 °F 29.7 in SW 11 mph 11 mph 65% 0.000 in 501.00 W/m2
14:44 84.0 °F 70.0 °F 29.7 in SW 7 mph 11 mph 64% 0.000 in 165.00 W/m2
14:49 84.0 °F 70.0 °F 29.7 in SW 6 mph 8 mph 64% 0.000 in 241.00 W/m2
14:54 84.0 °F 70.0 °F 29.7 in SW 8 mph 8 mph 64% 0.000 in 287.00 W/m2
14:59 84.0 °F 70.0 °F 29.7 in SSW 8 mph 10 mph 63% 0.000 in 295.00 W/m2
15:04 84.0 °F 69.0 °F 29.7 in SW 5 mph 10 mph 63% 0.000 in 330.00 W/m2
15:09 84.0 °F 70.0 °F 29.7 in SW 6 mph 7 mph 64% 0.000 in 330.00 W/m2
15:14 84.0 °F 69.0 °F 29.7 in WSW 7 mph 7 mph 62% 0.000 in 304.00 W/m2
15:19 84.0 °F 68.0 °F 29.7 in WSW 9 mph 10 mph 60% 0.000 in 369.00 W/m2
15:24 84.0 °F 69.0 °F 29.7 in SSW 6 mph 9 mph 61% 0.000 in 265.00 W/m2
15:29 84.0 °F 69.0 °F 29.7 in South 6 mph 7 mph 61% 0.000 in 171.00 W/m2
15:34 84.0 °F 68.0 °F 29.7 in SSW 8 mph 8 mph 61% 0.000 in 192.00 W/m2
15:39 83.0 °F 68.0 °F 29.7 in South 5 mph 6 mph 61% 0.000 in 192.00 W/m2
15:44 83.0 °F 68.0 °F 29.7 in SW 8 mph 8 mph 61% 0.000 in 134.00 W/m2
15:49 83.0 °F 68.0 °F 29.7 in SW 5 mph 9 mph 60% 0.000 in 114.00 W/m2
15:54 83.0 °F 67.0 °F 29.7 in SW 6 mph 6 mph 59% 0.000 in 109.00 W/m2
15:59 83.0 °F 68.0 °F 29.7 in SSW 7 mph 7 mph 60% 0.000 in 109.00 W/m2
16:04 83.0 °F 68.0 °F 29.7 in SW 5 mph 5 mph 60% 0.000 in 107.00 W/m2
16:09 83.0 °F 68.0 °F 29.7 in SW 5 mph 6 mph 60% 0.000 in 104.00 W/m2
16:14 83.0 °F 68.0 °F 29.7 in SW 2 mph 5 mph 61% 0.000 in 98.00 W/m2
16:19 83.0 °F 68.0 °F 29.7 in SW 5 mph 5 mph 61% 0.000 in 100.00 W/m2
16:24 83.0 °F 68.0 °F 29.7 in SSW 4 mph 4 mph 61% 0.000 in 91.00 W/m2
16:29 82.0 °F 68.0 °F 29.7 in SSW 4 mph 4 mph 61% 0.000 in 83.00 W/m2
16:34 82.0 °F 68.0 °F 29.7 in SW 2 mph 4 mph 61% 0.000 in 72.00 W/m2
16:39 82.0 °F 68.0 °F 29.7 in SW 4 mph 4 mph 61% 0.000 in 63.00 W/m2
16:44 82.0 °F 67.0 °F 29.7 in SW 2 mph 4 mph 61% 0.000 in 51.00 W/m2
16:49 82.0 °F 68.0 °F 29.7 in SSW 3 mph 3 mph 62% 0.000 in 44.00 W/m2
16:54 82.0 °F 68.0 °F 29.7 in SSW 2 mph 3 mph 62% 0.000 in 37.00 W/m2
16:59 82.0 °F 68.0 °F 29.7 in SSW 2 mph 3 mph 62% 0.000 in 30.00 W/m2
17:04 82.0 °F 67.0 °F 29.7 in SSW 2 mph 2 mph 62% 0.000 in 28.00 W/m2
17:09 81.0 °F 67.0 °F 29.7 in SSW 1 mph 2 mph 63% 0.000 in 19.00 W/m2
17:14 81.0 °F 67.0 °F 29.7 in SSW 2 mph 2 mph 63% 0.000 in 14.00 W/m2
17:19 81.0 °F 67.0 °F 29.7 in SSW 2 mph 2 mph 63% 0.000 in 12.00 W/m2
17:24 81.0 °F 67.0 °F 29.7 in SSW 2 mph 2 mph 63% 0.000 in 7.00 W/m2
17:29 80.0 °F 67.0 °F 29.7 in SSW 2 mph 2 mph 64% 0.000 in 0.00 W/m2
17:34 80.0 °F 67.0 °F 29.7 in SSW 1 mph 2 mph 64% 0.000 in 0.00 W/m2
17:39 80.0 °F 67.0 °F 29.7 in SSW 2 mph 2 mph 64% 0.000 in 0.00 W/m2
17:44 80.0 °F 67.0 °F 29.7 in SSW 1 mph 2 mph 65% 0.000 in 0.00 W/m2
17:49 79.0 °F 67.0 °F 29.7 in Calm   1 mph 65% 0.000 in 0.00 W/m2
17:54 79.0 °F 67.0 °F 29.7 in SSW 2 mph 2 mph 66% 0.000 in 0.00 W/m2
17:59 79.0 °F 67.0 °F 29.7 in SSW 2 mph 2 mph 66% 0.000 in 0.00 W/m2
18:04 79.0 °F 67.0 °F 29.7 in SW 3 mph 3 mph 67% 0.000 in 0.00 W/m2
18:09 78.0 °F 67.0 °F 29.7 in West 3 mph 3 mph 67% 0.000 in 0.00 W/m2
18:14 78.0 °F 66.0 °F 29.7 in West 1 mph 3 mph 67% 0.000 in 0.00 W/m2
18:19 78.0 °F 67.0 °F 29.7 in West 2 mph 2 mph 68% 0.000 in 0.00 W/m2
18:24 78.0 °F 66.0 °F 29.7 in West 3 mph 3 mph 68% 0.000 in 0.00 W/m2
18:29 78.0 °F 66.0 °F 29.7 in West 1 mph 3 mph 68% 0.000 in 0.00 W/m2
18:34 77.0 °F 66.0 °F 29.7 in West 2 mph 2 mph 68% 0.000 in 0.00 W/m2
18:39 77.0 °F 66.0 °F 29.7 in West 1 mph 2 mph 69% 0.000 in 0.00 W/m2
18:44 77.0 °F 66.0 °F 29.7 in West 2 mph 2 mph 69% 0.000 in 0.00 W/m2
18:49 77.0 °F 66.0 °F 29.7 in West 1 mph 2 mph 69% 0.000 in 0.00 W/m2
18:54 77.0 °F 66.0 °F 29.7 in West 1 mph 1 mph 69% 0.000 in 0.00 W/m2
18:59 77.0 °F 66.0 °F 29.7 in West 1 mph 1 mph 69% 0.000 in 0.00 W/m2
19:04 76.0 °F 65.0 °F 29.7 in West 1 mph 1 mph 69% 0.000 in 0.00 W/m2
19:09 76.0 °F 65.0 °F 29.7 in West 1 mph 2 mph 70% 0.000 in 0.00 W/m2
19:14 76.0 °F 65.0 °F 29.7 in West 2 mph 2 mph 70% 0.000 in 0.00 W/m2
19:19 75.0 °F 65.0 °F 29.7 in West 2 mph 2 mph 71% 0.000 in 0.00 W/m2
19:24 75.0 °F 65.0 °F 29.8 in West 3 mph 3 mph 71% 0.000 in 0.00 W/m2
19:29 75.0 °F 65.0 °F 29.7 in WNW 3 mph 3 mph 71% 0.000 in 0.00 W/m2
19:34 75.0 °F 65.0 °F 29.8 in NW 5 mph 5 mph 71% 0.000 in 0.00 W/m2
19:39 75.0 °F 64.0 °F 29.8 in NW 4 mph 5 mph 70% 0.000 in 0.00 W/m2
19:44 75.0 °F 64.0 °F 29.8 in NW 4 mph 4 mph 70% 0.000 in 0.00 W/m2
19:49 75.0 °F 64.0 °F 29.8 in NW 4 mph 4 mph 69% 0.000 in 0.00 W/m2
19:54 75.0 °F 63.0 °F 29.8 in NW 4 mph 4 mph 68% 0.000 in 0.00 W/m2
19:59 75.0 °F 63.0 °F 29.8 in NW 4 mph 4 mph 67% 0.000 in 0.00 W/m2
20:04 75.0 °F 63.0 °F 29.8 in NW 3 mph 3 mph 67% 0.000 in 0.00 W/m2
20:09 75.0 °F 63.0 °F 29.8 in NNW 4 mph 4 mph 67% 0.000 in 0.00 W/m2
20:14 75.0 °F 63.0 °F 29.8 in NNW 2 mph 2 mph 66% 0.000 in 0.00 W/m2
20:19 75.0 °F 63.0 °F 29.8 in NNW 3 mph 3 mph 66% 0.000 in 0.00 W/m2
20:24 75.0 °F 63.0 °F 29.8 in NW 2 mph 3 mph 66% 0.000 in 0.00 W/m2
20:29 75.0 °F 63.0 °F 29.8 in NW 3 mph 3 mph 66% 0.000 in 0.00 W/m2
20:34 75.0 °F 62.0 °F 29.8 in NW 2 mph 3 mph 66% 0.000 in 0.00 W/m2
20:39 75.0 °F 62.0 °F 29.8 in NW 2 mph 2 mph 66% 0.000 in 0.00 W/m2
20:44 74.0 °F 62.0 °F 29.8 in NW 1 mph 1 mph 67% 0.000 in 0.00 W/m2
20:49 74.0 °F 62.0 °F 29.8 in NW 1 mph 1 mph 67% 0.000 in 0.00 W/m2
20:54 74.0 °F 62.0 °F 29.8 in Calm     67% 0.000 in 0.00 W/m2
20:59 74.0 °F 62.0 °F 29.8 in Calm     66% 0.000 in 0.00 W/m2
21:04 74.0 °F 62.0 °F 29.8 in Calm     67% 0.000 in 0.00 W/m2
21:09 73.0 °F 62.0 °F 29.8 in Calm     67% 0.000 in 0.00 W/m2
21:14 73.0 °F 62.0 °F 29.8 in NW 1 mph 1 mph 68% 0.000 in 0.00 W/m2
21:19 73.0 °F 62.0 °F 29.8 in NW 2 mph 2 mph 68% 0.000 in 0.00 W/m2
21:24 73.0 °F 62.0 °F 29.8 in WNW 3 mph 3 mph 69% 0.000 in 0.00 W/m2
21:29 72.0 °F 62.0 °F 29.8 in SE 4 mph 5 mph 71% 0.000 in 0.00 W/m2
21:34 72.0 °F 62.0 °F 29.8 in SE 2 mph 4 mph 71% 0.000 in 0.00 W/m2
21:39 72.0 °F 62.0 °F 29.8 in SE 2 mph 2 mph 72% 0.000 in 0.00 W/m2
21:44 71.0 °F 62.0 °F 29.8 in SE 1 mph 2 mph 72% 0.000 in 0.00 W/m2
21:49 71.0 °F 62.0 °F 29.8 in SE 2 mph 2 mph 72% 0.000 in 0.00 W/m2
21:54 71.0 °F 62.0 °F 29.8 in SE 2 mph 2 mph 72% 0.000 in 0.00 W/m2
21:59 71.0 °F 62.0 °F 29.8 in SE 1 mph 2 mph 73% 0.000 in 0.00 W/m2
22:04 71.0 °F 62.0 °F 29.8 in SE 1 mph 1 mph 73% 0.000 in 0.00 W/m2
22:09 71.0 °F 62.0 °F 29.8 in Calm   1 mph 73% 0.000 in 0.00 W/m2
22:14 71.0 °F 62.0 °F 29.8 in SE 1 mph 1 mph 73% 0.000 in 0.00 W/m2
22:19 71.0 °F 62.0 °F 29.8 in SE 2 mph 2 mph 73% 0.000 in 0.00 W/m2
22:24 71.0 °F 62.0 °F 29.8 in SE 1 mph 2 mph 74% 0.000 in 0.00 W/m2
22:29 71.0 °F 62.0 °F 29.8 in SE 1 mph 1 mph 74% 0.000 in 0.00 W/m2
22:34 71.0 °F 62.0 °F 29.8 in SE 3 mph 3 mph 74% 0.000 in 0.00 W/m2
22:39 71.0 °F 62.0 °F 29.8 in NE 3 mph 3 mph 75% 0.000 in 0.00 W/m2
22:44 70.0 °F 62.0 °F 29.8 in North 5 mph 5 mph 75% 0.000 in 0.00 W/m2
22:49 70.0 °F 62.0 °F 29.8 in North 5 mph 8 mph 76% 0.000 in 0.00 W/m2
22:54 70.0 °F 62.0 °F 29.8 in NNW 9 mph 10 mph 76% 0.000 in 0.00 W/m2
22:59 70.0 °F 62.0 °F 29.8 in North 9 mph 10 mph 74% 0.000 in 0.00 W/m2
23:04 71.0 °F 61.0 °F 29.8 in NNW 8 mph 8 mph 72% 0.000 in 0.00 W/m2
23:09 71.0 °F 61.0 °F 29.8 in NNW 14 mph 15 mph 71% 0.000 in 0.00 W/m2
23:14 70.0 °F 60.0 °F 29.8 in NNW 17 mph 17 mph 70% 0.000 in 0.00 W/m2
23:19 70.0 °F 59.0 °F 29.8 in NNW 17 mph 17 mph 68% 0.000 in 0.00 W/m2
23:24 69.0 °F 58.0 °F 29.9 in NNW 14 mph 15 mph 68% 0.000 in 0.00 W/m2
23:29 69.0 °F 57.0 °F 29.9 in NNW 16 mph 16 mph 67% 0.000 in 0.00 W/m2
23:34 68.0 °F 56.0 °F 29.9 in NNW 18 mph 19 mph 66% 0.000 in 0.00 W/m2
23:39 66.0 °F 55.0 °F 29.9 in NNW 17 mph 18 mph 67% 0.000 in 0.00 W/m2
23:44 66.0 °F 55.0 °F 29.9 in NNW 15 mph 18 mph 69% 0.000 in 0.00 W/m2
23:49 65.0 °F 54.0 °F 29.9 in NNW 14 mph 15 mph 70% 0.000 in 0.00 W/m2
23:54 64.0 °F 54.0 °F 29.9 in NW 17 mph 19 mph 70% 0.000 in 0.00 W/m2
23:59 63.0 °F 53.0 °F 29.9 in NNW 19 mph 19 mph 70% 0.000 in 0.00 W/m2
Villages of Bridgestone, Spring, TX USA
Compliments of Weather Underground - 4 mb